Time;durP1;ratioP1;P1;durP2;ratioP2;P2;SDS_P1;SDS_P2;PMS_P1;PMS_P2;Temp;Humidity;BMP_temperature;BMP_pressure;BME280_temperature;BME280_humidity;BME280_pressure;Samples;Min_cycle;Max_cycle;Signal;HPM_P1;HPM_P2
2022/03/02 00:02:11;;;;;;;11.68;7.50;;;;;;;4.94;41.54;101944.31;5065968;27;20071;-70
2022/03/02 00:04:37;;;;;;;10.55;8.02;;;;;;;4.88;41.40;101945.47;5070760;27;20460;-72
2022/03/02 00:07:02;;;;;;;9.30;7.28;;;;;;;4.89;41.76;101943.69;5066892;27;20011;-71
2022/03/02 00:09:29;;;;;;;9.30;8.05;;;;;;;4.91;41.22;101941.84;5052202;27;20197;-70
2022/03/02 00:11:54;;;;;;;11.25;8.02;;;;;;;4.88;42.23;101947.22;5053825;27;20052;-73
2022/03/02 00:14:19;;;;;;;8.27;7.47;;;;;;;4.77;41.55;101948.56;5060507;27;20005;-72
2022/03/02 00:16:45;;;;;;;9.45;7.90;;;;;;;4.71;41.85;101946.22;5050695;27;20436;-72
2022/03/02 00:19:10;;;;;;;9.75;7.93;;;;;;;4.66;41.51;101931.63;5039639;27;20474;-71
2022/03/02 00:21:36;;;;;;;9.60;7.70;;;;;;;4.58;42.41;101939.81;5058209;27;20185;-71
2022/03/02 00:24:03;;;;;;;10.70;7.93;;;;;;;4.57;43.02;101938.09;5036994;27;20031;-71
2022/03/02 00:26:30;;;;;;;8.90;7.50;;;;;;;4.58;42.41;101945.06;5052879;27;19996;-71
2022/03/02 00:28:55;;;;;;;10.80;7.70;;;;;;;4.57;42.18;101940.72;5014807;28;20784;-70
2022/03/02 00:31:21;;;;;;;10.90;7.90;;;;;;;4.55;42.48;101946.03;4997863;28;20006;-71
2022/03/02 00:33:46;;;;;;;11.70;7.85;;;;;;;4.58;42.56;101947.69;5016419;28;20033;-71
2022/03/02 00:36:11;;;;;;;12.52;7.82;;;;;;;4.62;42.58;101946.63;5015347;27;20098;-71
2022/03/02 00:38:37;;;;;;;9.35;7.28;;;;;;;4.51;42.59;101948.88;5014535;28;20022;-70
2022/03/02 00:41:03;;;;;;;8.57;7.65;;;;;;;4.49;42.77;101942.88;4993175;28;20017;-71
2022/03/02 00:43:28;;;;;;;10.10;7.78;;;;;;;4.52;42.73;101940.09;5012435;28;20025;-71
2022/03/02 00:45:54;;;;;;;11.30;7.65;;;;;;;4.52;42.92;101942.72;5015167;28;20025;-70
2022/03/02 00:48:19;;;;;;;9.40;7.78;;;;;;;4.42;43.64;101940.50;5014928;28;20038;-70
2022/03/02 00:50:45;;;;;;;10.65;7.60;;;;;;;4.33;44.21;101933.06;5014897;27;20052;-70
2022/03/02 00:53:11;;;;;;;9.93;8.18;;;;;;;4.23;45.51;101929.09;5032782;27;20021;-70
2022/03/02 00:55:37;;;;;;;11.13;7.68;;;;;;;4.19;45.79;101928.41;5016173;27;20028;-71
2022/03/02 00:58:03;;;;;;;10.18;7.30;;;;;;;4.17;46.64;101926.75;5021398;27;20028;-70
2022/03/02 01:00:28;;;;;;;8.30;7.45;;;;;;;4.12;47.16;101921.72;5025213;27;20013;-70
2022/03/02 01:02:54;;;;;;;11.13;7.35;;;;;;;4.12;47.67;101912.09;5031781;27;20121;-71
2022/03/02 01:05:19;;;;;;;9.77;7.18;;;;;;;4.14;48.32;101917.25;5015987;27;20507;-71
2022/03/02 01:07:45;;;;;;;10.00;7.18;;;;;;;3.90;49.94;101911.31;5015234;27;20029;-72
2022/03/02 01:10:10;;;;;;;11.20;7.15;;;;;;;3.85;50.48;101905.41;5035580;27;20043;-70
2022/03/02 01:12:35;;;;;;;7.55;6.85;;;;;;;3.82;50.89;101908.16;5032638;27;20980;-70
2022/03/02 01:15:01;;;;;;;10.88;7.63;;;;;;;3.74;51.11;101908.50;5035891;27;20067;-70
2022/03/02 01:17:26;;;;;;;8.75;7.03;;;;;;;3.71;50.02;101912.09;4997317;27;20071;-71
2022/03/02 01:19:52;;;;;;;10.00;7.90;;;;;;;3.60;48.72;101906.44;4997120;27;20341;-71
2022/03/02 01:22:17;;;;;;;9.38;7.35;;;;;;;3.53;48.73;101903.22;4997459;27;20009;-71
2022/03/02 01:24:43;;;;;;;8.10;7.28;;;;;;;3.41;49.45;101903.69;4996212;27;20017;-71
2022/03/02 01:27:08;;;;;;;8.77;7.47;;;;;;;3.23;50.54;101887.00;5017177;27;20420;-70
2022/03/02 01:29:34;;;;;;;10.50;7.55;;;;;;;3.13;51.05;101872.56;5017868;27;20029;-71
2022/03/02 01:32:03;;;;;;;12.57;6.95;;;;;;;3.12;51.15;101876.09;5012881;27;20005;-71
2022/03/02 01:34:29;;;;;;;8.63;7.22;;;;;;;3.11;51.88;101879.63;5032974;27;20099;-71
2022/03/02 01:36:54;;;;;;;8.45;6.72;;;;;;;2.96;52.83;101868.88;5029278;27;20185;-70
2022/03/02 01:39:20;;;;;;;9.68;6.45;;;;;;;2.98;53.15;101859.19;5015486;27;20113;-70
2022/03/02 01:41:45;;;;;;;7.65;6.50;;;;;;;2.94;53.58;101860.22;5032671;27;20025;-70
2022/03/02 01:44:11;;;;;;;8.77;7.00;;;;;;;2.96;53.10;101849.69;5000239;27;20947;-70
2022/03/02 01:46:36;;;;;;;7.07;6.35;;;;;;;2.90;53.32;101850.78;5029581;27;20080;-71
2022/03/02 01:49:01;;;;;;;10.40;6.85;;;;;;;3.07;53.51;101861.44;5034765;27;20708;-70
2022/03/02 01:51:27;;;;;;;7.93;6.88;;;;;;;3.08;53.83;101859.69;5015732;27;20016;-70
2022/03/02 01:53:52;;;;;;;8.30;6.80;;;;;;;3.15;53.66;101852.44;5015847;27;20028;-70
2022/03/02 01:56:18;;;;;;;9.35;6.93;;;;;;;2.98;53.21;101853.97;5034806;27;20028;-70
2022/03/02 01:58:44;;;;;;;10.27;7.43;;;;;;;2.71;53.68;101867.19;5034426;27;20013;-70
2022/03/02 02:01:09;;;;;;;9.38;7.13;;;;;;;2.59;54.70;101862.41;5033324;27;20017;-70
2022/03/02 02:03:34;;;;;;;8.90;7.35;;;;;;;2.70;54.41;101862.84;5033333;27;20020;-71
2022/03/02 02:06:01;;;;;;;10.15;7.03;;;;;;;2.60;54.13;101866.72;5017733;27;20025;-71
2022/03/02 02:08:27;;;;;;;9.82;7.20;;;;;;;2.43;54.55;101871.75;5035429;27;20040;-71
2022/03/02 02:10:55;;;;;;;7.93;6.95;;;;;;;2.31;54.64;101862.56;5018405;27;20146;-71
2022/03/02 02:13:21;;;;;;;8.18;6.72;;;;;;;2.32;54.96;101870.34;5032896;27;20013;-71
2022/03/02 02:15:47;;;;;;;7.90;6.88;;;;;;;2.51;54.71;101869.69;5038520;27;20760;-71
2022/03/02 02:18:12;;;;;;;10.57;7.75;;;;;;;2.47;54.67;101868.09;5019253;27;20954;-71
2022/03/02 02:20:38;;;;;;;9.15;7.00;;;;;;;2.31;55.09;101867.81;5013668;27;20017;-72
2022/03/02 02:23:04;;;;;;;9.63;7.32;;;;;;;2.25;55.94;101862.81;5017342;27;20031;-70
2022/03/02 02:25:29;;;;;;;8.60;7.32;;;;;;;2.05;56.31;101856.53;5035955;27;20381;-71
2022/03/02 02:27:54;;;;;;;8.57;6.93;;;;;;;2.04;56.52;101855.66;5039412;27;20040;-71
2022/03/02 02:30:21;;;;;;;10.40;7.35;;;;;;;1.99;57.25;101857.59;5013926;27;20599;-70
2022/03/02 02:32:46;;;;;;;11.05;7.03;;;;;;;2.23;56.45;101857.66;5042062;27;20062;-70
2022/03/02 02:35:12;;;;;;;9.23;7.13;;;;;;;2.40;55.59;101857.88;5001517;27;20032;-70
2022/03/02 02:37:37;;;;;;;8.95;7.50;;;;;;;2.17;55.44;101852.63;5040032;27;20017;-70
2022/03/02 02:40:08;;;;;;;8.90;7.57;;;;;;;2.01;55.56;101842.72;5006141;27;20201;-70
2022/03/02 02:42:34;;;;;;;8.55;7.50;;;;;;;1.87;55.97;101848.44;4999168;27;20113;-71
2022/03/02 02:44:59;;;;;;;10.70;7.47;;;;;;;1.87;55.94;101842.38;5022534;27;20224;-70
2022/03/02 02:47:25;;;;;;;9.50;7.70;;;;;;;2.00;55.44;101841.03;5040758;27;20974;-71
2022/03/02 02:49:50;;;;;;;10.07;8.07;;;;;;;1.98;55.63;101829.78;5007294;28;20020;-70
2022/03/02 02:52:15;;;;;;;9.63;7.78;;;;;;;1.91;56.40;101838.75;5038822;27;20098;-70
2022/03/02 02:54:41;;;;;;;8.07;7.28;;;;;;;1.85;56.79;101831.13;5044190;27;20211;-71
2022/03/02 02:57:07;;;;;;;9.65;7.75;;;;;;;1.92;57.14;101829.16;5048235;27;20248;-71
2022/03/02 02:59:32;;;;;;;9.75;8.05;;;;;;;1.79;57.22;101824.38;5046165;27;20262;-71
2022/03/02 03:01:57;;;;;;;8.80;7.53;;;;;;;1.84;57.76;101827.66;5011760;27;20830;-70
2022/03/02 03:04:23;;;;;;;9.23;7.40;;;;;;;1.77;57.73;101822.72;5013028;27;20029;-70
2022/03/02 03:06:48;;;;;;;8.60;7.18;;;;;;;1.75;57.55;101819.28;5045903;27;20021;-70
2022/03/02 03:09:16;;;;;;;13.35;7.55;;;;;;;1.73;57.17;101813.28;5049809;27;20475;-71
2022/03/02 03:11:41;;;;;;;11.07;7.57;;;;;;;1.76;57.53;101818.41;5030045;27;20027;-71
2022/03/02 03:14:10;;;;;;;9.88;7.18;;;;;;;1.73;58.22;101813.28;5063506;27;20027;-70
2022/03/02 03:16:36;;;;;;;7.78;6.95;;;;;;;1.78;58.33;101817.44;5091388;27;20024;-71
2022/03/02 03:19:01;;;;;;;8.73;7.22;;;;;;;1.82;58.49;101821.66;5085770;27;20047;-70
2022/03/02 03:21:27;;;;;;;10.25;7.57;;;;;;;1.87;59.04;101813.66;5063272;27;20012;-71
2022/03/02 03:23:52;;;;;;;7.55;6.82;;;;;;;1.86;59.78;101815.41;5021683;27;20047;-71
2022/03/02 03:26:17;;;;;;;7.85;7.03;;;;;;;1.83;60.96;101819.88;5036639;27;20842;-71
2022/03/02 03:28:43;;;;;;;8.25;6.93;;;;;;;1.83;60.59;101818.16;5025587;27;20472;-71
2022/03/02 03:31:09;;;;;;;8.00;7.00;;;;;;;1.94;60.48;101809.91;5016230;27;20017;-72
2022/03/02 03:33:34;;;;;;;7.70;6.93;;;;;;;2.04;60.47;101813.06;5016292;27;20112;-72
2022/03/02 03:35:59;;;;;;;10.40;7.45;;;;;;;2.06;60.07;101811.25;5003094;27;20036;-71
2022/03/02 03:38:25;;;;;;;8.10;6.97;;;;;;;2.04;60.78;101806.06;5034844;27;20021;-71
2022/03/02 03:40:50;;;;;;;9.27;6.78;;;;;;;2.06;60.96;101800.81;5015000;27;20024;-71
2022/03/02 03:43:15;;;;;;;9.05;6.85;;;;;;;2.04;61.30;101808.66;5033233;27;20085;-70
2022/03/02 03:45:41;;;;;;;7.68;6.85;;;;;;;2.08;61.12;101804.19;5011339;27;20027;-70
2022/03/02 03:48:06;;;;;;;7.28;6.65;;;;;;;2.26;61.29;101804.44;5016570;27;20073;-71
2022/03/02 03:50:32;;;;;;;8.73;6.72;;;;;;;2.35;60.48;101801.47;4981377;27;20024;-71
2022/03/02 03:52:57;;;;;;;8.98;7.28;;;;;;;2.44;60.37;101798.53;5016292;27;20017;-70
2022/03/02 03:55:22;;;;;;;9.60;7.13;;;;;;;2.50;60.11;101800.06;5031167;27;20932;-71
2022/03/02 03:57:48;;;;;;;8.50;6.70;;;;;;;2.61;60.07;101791.78;5022005;27;20582;-71
2022/03/02 04:00:16;;;;;;;9.93;7.43;;;;;;;2.62;60.07;101789.13;5014798;27;20701;-72
2022/03/02 04:02:42;;;;;;;7.70;6.90;;;;;;;2.74;60.18;101801.72;5036718;27;20017;-71
2022/03/02 04:05:07;;;;;;;8.80;7.70;;;;;;;2.75;59.64;101795.59;5032489;27;20855;-71
2022/03/02 04:07:33;;;;;;;7.82;7.05;;;;;;;2.67;59.08;101797.63;5044922;27;20062;-71
2022/03/02 04:09:58;;;;;;;9.32;7.13;;;;;;;2.71;59.50;101790.53;5034606;27;20016;-71
2022/03/02 04:12:24;;;;;;;10.07;7.00;;;;;;;2.72;59.01;101794.84;5016103;27;20083;-71
2022/03/02 04:14:49;;;;;;;8.38;7.30;;;;;;;2.81;59.47;101788.44;5051487;27;20023;-71
2022/03/02 04:17:15;;;;;;;8.05;7.00;;;;;;;2.82;59.27;101790.09;5051847;27;20936;-70
2022/03/02 04:19:40;;;;;;;9.23;7.30;;;;;;;2.80;59.49;101786.72;5049014;27;20462;-70
2022/03/02 04:22:06;;;;;;;8.13;7.32;;;;;;;2.80;59.38;101784.09;5031593;27;20016;-70
2022/03/02 04:24:32;;;;;;;9.45;7.32;;;;;;;2.75;59.86;101784.28;5049283;27;20029;-70
2022/03/02 04:26:57;;;;;;;8.57;7.35;;;;;;;2.68;59.84;101783.66;5044672;27;20068;-69
2022/03/02 04:29:22;;;;;;;9.27;7.18;;;;;;;2.75;59.32;101782.50;5015067;27;20024;-70
2022/03/02 04:31:48;;;;;;;10.23;7.47;;;;;;;2.88;58.88;101768.97;5034650;27;20170;-71
2022/03/02 04:34:14;;;;;;;9.15;7.45;;;;;;;2.75;58.65;101777.28;5050358;27;20258;-71
2022/03/02 04:36:39;;;;;;;8.50;7.20;;;;;;;2.83;58.29;101776.13;5055320;27;20068;-72
2022/03/02 04:39:05;;;;;;;7.72;6.72;;;;;;;2.89;58.31;101776.75;5035409;27;20306;-70
2022/03/02 04:41:30;;;;;;;9.73;7.22;;;;;;;2.84;58.27;101773.44;5053479;27;20746;-71
2022/03/02 04:43:56;;;;;;;7.82;6.75;;;;;;;2.89;57.93;101770.66;5049541;27;20052;-71
2022/03/02 04:46:21;;;;;;;8.20;7.30;;;;;;;2.92;58.12;101765.31;5019377;27;20032;-70
2022/03/02 04:48:47;;;;;;;8.52;7.07;;;;;;;2.95;58.76;101766.94;4996975;27;20009;-70
2022/03/02 04:51:12;;;;;;;7.95;7.15;;;;;;;2.93;58.57;101761.75;5029548;27;20036;-70
2022/03/02 04:53:38;;;;;;;7.75;7.05;;;;;;;2.86;58.33;101755.97;5019940;27;20085;-71
2022/03/02 04:56:03;;;;;;;10.07;7.45;;;;;;;2.90;57.77;101751.44;5025740;27;20498;-70
2022/03/02 04:58:29;;;;;;;8.43;7.03;;;;;;;2.82;57.53;101751.75;5026612;27;20171;-70
2022/03/02 05:00:54;;;;;;;8.45;7.30;;;;;;;2.82;57.81;101754.38;5013852;27;20028;-71
2022/03/02 05:03:20;;;;;;;7.55;6.85;;;;;;;2.77;57.81;101747.63;5013330;27;20025;-70
2022/03/02 05:05:45;;;;;;;7.75;6.95;;;;;;;2.66;58.91;101756.72;4998622;27;20009;-69
2022/03/02 05:08:11;;;;;;;7.80;7.00;;;;;;;2.89;59.14;101745.38;5037040;27;20017;-70
2022/03/02 05:10:36;;;;;;;7.82;6.88;;;;;;;2.82;59.72;101743.06;5016680;27;20116;-69
2022/03/02 05:13:02;;;;;;;7.78;6.95;;;;;;;2.95;59.45;101756.47;5001458;27;20052;-72
2022/03/02 05:15:28;;;;;;;8.65;6.82;;;;;;;2.99;59.20;101755.44;5016945;27;20093;-71
2022/03/02 05:17:53;;;;;;;8.27;6.85;;;;;;;3.01;58.51;101743.16;5018960;27;20013;-69
2022/03/02 05:20:19;;;;;;;8.45;6.80;;;;;;;3.12;57.69;101740.09;5038012;27;20020;-70
2022/03/02 05:22:45;;;;;;;8.20;7.40;;;;;;;3.14;57.80;101738.28;5033108;27;20132;-70
2022/03/02 05:25:12;;;;;;;7.72;6.93;;;;;;;3.09;58.06;101744.53;4982588;27;20125;-71
2022/03/02 05:27:38;;;;;;;9.77;7.10;;;;;;;3.18;56.82;101738.06;5015322;27;20438;-70
2022/03/02 05:30:04;;;;;;;7.75;6.97;;;;;;;3.13;58.73;101732.19;5039393;27;20059;-71
2022/03/02 05:32:29;;;;;;;8.45;6.72;;;;;;;3.12;59.02;101740.09;5019546;27;20589;-70
2022/03/02 05:34:55;;;;;;;7.47;6.72;;;;;;;3.19;59.11;101736.31;5036738;27;20027;-70
2022/03/02 05:37:20;;;;;;;12.05;7.10;;;;;;;3.11;59.08;101748.88;5020271;27;20013;-70
2022/03/02 05:39:46;;;;;;;10.00;7.25;;;;;;;3.18;59.02;101747.69;5039627;27;20025;-70
2022/03/02 05:42:11;;;;;;;7.15;6.45;;;;;;;3.15;58.64;101753.06;5055512;27;20418;-70
2022/03/02 05:44:36;;;;;;;7.90;7.03;;;;;;;3.08;58.39;101748.06;5044059;27;20021;-72
2022/03/02 05:47:02;;;;;;;8.88;7.32;;;;;;;3.07;58.43;101751.63;5041108;27;20039;-73
2022/03/02 05:49:28;;;;;;;7.78;6.47;;;;;;;3.00;59.70;101751.91;5039507;27;20025;-71
2022/03/02 05:51:53;;;;;;;7.78;6.68;;;;;;;2.99;59.19;101745.84;5041596;27;20396;-72
2022/03/02 05:54:18;;;;;;;8.00;7.20;;;;;;;3.01;59.30;101749.22;5020557;27;20052;-72
2022/03/02 05:56:44;;;;;;;8.00;7.20;;;;;;;3.04;59.05;101748.25;5041178;27;20040;-72
2022/03/02 05:59:12;;;;;;;8.23;7.35;;;;;;;3.02;57.96;101743.09;5048207;27;20168;-72
2022/03/02 06:01:38;;;;;;;8.45;6.88;;;;;;;3.03;58.76;101750.03;5045470;27;20199;-72
2022/03/02 06:04:03;;;;;;;8.30;7.38;;;;;;;2.92;58.73;101749.63;5036749;27;20476;-71
2022/03/02 06:06:29;;;;;;;10.65;7.25;;;;;;;2.83;59.03;101755.22;5048282;27;20798;-72
2022/03/02 06:08:55;;;;;;;7.70;6.97;;;;;;;3.05;58.40;101755.19;5056761;27;20167;-72
2022/03/02 06:11:21;;;;;;;11.00;8.00;;;;;;;2.86;58.42;101749.84;5064291;27;20157;-72
2022/03/02 06:13:47;;;;;;;14.75;8.63;;;;;;;2.73;59.12;101745.13;5031189;27;20302;-72
2022/03/02 06:16:12;;;;;;;9.48;7.90;;;;;;;2.66;59.10;101743.66;5038555;27;20024;-71
2022/03/02 06:18:38;;;;;;;8.02;7.22;;;;;;;2.90;58.82;101746.22;5042794;27;20077;-71
2022/03/02 06:21:03;;;;;;;11.50;7.80;;;;;;;2.99;58.69;101751.06;5010320;27;20028;-71
2022/03/02 06:23:29;;;;;;;10.20;6.82;;;;;;;2.90;59.03;101757.50;5000903;27;20021;-72
2022/03/02 06:25:55;;;;;;;9.13;7.93;;;;;;;2.80;59.58;101755.34;5013129;27;20516;-72
2022/03/02 06:28:21;;;;;;;8.80;7.47;;;;;;;2.66;60.36;101759.34;5027714;27;20033;-71
2022/03/02 06:30:47;;;;;;;8.68;7.07;;;;;;;2.58;61.15;101756.19;5034800;27;20013;-72
2022/03/02 06:33:13;;;;;;;9.10;6.95;;;;;;;2.55;61.57;101756.31;5039800;27;20907;-71
2022/03/02 06:35:38;;;;;;;9.02;7.25;;;;;;;2.64;61.77;101755.13;5018758;27;20421;-72
2022/03/02 06:38:03;;;;;;;8.52;7.43;;;;;;;2.77;60.91;101756.31;5020351;27;20021;-71
2022/03/02 06:40:29;;;;;;;8.75;7.45;;;;;;;2.80;60.37;101752.72;5031226;27;20209;-71
2022/03/02 06:43:06;;;;;;;8.95;8.07;;;;;;;2.80;59.63;101750.13;5039033;27;20013;-70
2022/03/02 06:45:54;;;;;;;10.07;7.30;;;;;;;2.62;59.68;101755.16;5029793;27;20036;-71
2022/03/02 06:48:26;;;;;;;8.20;7.28;;;;;;;2.64;59.73;101758.56;5015324;27;20938;-70
2022/03/02 06:50:54;;;;;;;8.68;7.55;;;;;;;2.57;59.25;101759.72;5011891;28;20040;-71
2022/03/02 06:53:29;;;;;;;10.95;7.50;;;;;;;2.54;59.18;101759.84;5001855;27;20408;-71
2022/03/02 06:55:55;;;;;;;8.60;7.60;;;;;;;2.55;60.15;101761.53;5038229;27;20041;-71
2022/03/02 06:58:20;;;;;;;8.80;7.40;;;;;;;2.64;60.21;101763.78;5028408;28;20582;-71
2022/03/02 07:00:52;;;;;;;10.85;7.50;;;;;;;2.62;60.17;101749.91;5029809;27;20032;-71
2022/03/02 07:03:18;;;;;;;9.73;8.30;;;;;;;2.63;60.43;101754.25;5021691;28;20017;-71
2022/03/02 07:05:44;;;;;;;10.90;8.10;;;;;;;2.67;60.79;101770.66;4995716;28;20834;-70
2022/03/02 07:08:09;;;;;;;9.65;8.15;;;;;;;2.75;60.19;101774.69;5014361;28;20017;-70
2022/03/02 07:10:36;;;;;;;10.48;8.30;;;;;;;3.08;59.28;101781.22;5035436;27;20332;-70
2022/03/02 07:13:03;;;;;;;8.95;7.88;;;;;;;3.21;59.35;101776.34;5014881;28;20124;-71
2022/03/02 07:15:29;;;;;;;8.60;7.65;;;;;;;3.40;58.60;101779.88;5028616;27;20040;-71
2022/03/02 07:17:54;;;;;;;9.75;7.57;;;;;;;3.50;57.64;101777.72;5034365;27;20032;-70
2022/03/02 07:20:20;;;;;;;8.57;7.68;;;;;;;3.52;57.20;101775.03;5038389;27;20020;-71
2022/03/02 07:22:51;;;;;;;9.07;7.93;;;;;;;3.57;57.43;101778.31;5033841;28;20017;-71
2022/03/02 07:25:25;;;;;;;8.38;6.85;;;;;;;3.52;59.55;101780.28;5033237;27;20414;-72
2022/03/02 07:27:50;;;;;;;10.43;7.25;;;;;;;3.39;60.62;101778.19;5008258;28;20031;-72
2022/03/02 07:30:16;;;;;;;7.55;6.80;;;;;;;3.46;60.10;101780.56;5014465;27;20008;-70
2022/03/02 07:32:45;;;;;;;8.10;7.22;;;;;;;3.54;60.10;101781.06;5015564;27;20024;-70
2022/03/02 07:35:10;;;;;;;8.48;7.55;;;;;;;3.55;59.03;101780.13;5028489;27;20110;-70
2022/03/02 07:37:36;;;;;;;12.13;7.63;;;;;;;3.47;58.47;101782.22;5034687;28;20768;-70
2022/03/02 07:40:02;;;;;;;7.85;7.05;;;;;;;3.42;57.99;101780.66;5035648;27;20028;-71
2022/03/02 07:42:28;;;;;;;9.02;7.65;;;;;;;3.54;57.70;101781.91;5027628;27;20085;-71
2022/03/02 07:44:54;;;;;;;8.70;7.03;;;;;;;3.67;57.45;101784.03;5040149;27;20009;-71
2022/03/02 07:47:19;;;;;;;8.30;7.50;;;;;;;3.61;57.99;101785.13;5016016;27;20082;-70
2022/03/02 07:49:45;;;;;;;11.13;7.65;;;;;;;3.56;58.46;101774.00;5027893;27;20890;-70
2022/03/02 07:52:11;;;;;;;8.88;7.80;;;;;;;3.66;57.99;101777.91;5019199;27;20028;-70
2022/03/02 07:54:38;;;;;;;8.40;7.45;;;;;;;3.70;58.78;101779.47;5007555;27;20025;-71
2022/03/02 07:57:08;;;;;;;8.45;7.55;;;;;;;3.95;58.44;101778.41;5021872;27;20558;-70
2022/03/02 07:59:43;;;;;;;11.80;7.38;;;;;;;4.12;58.16;101775.88;5023233;27;20001;-70
2022/03/02 08:02:10;;;;;;;10.15;7.97;;;;;;;4.33;55.63;101767.09;5040748;27;20428;-70
2022/03/02 08:04:36;;;;;;;9.43;8.02;;;;;;;4.47;53.34;101762.94;5042324;27;21219;-70
2022/03/02 08:07:02;;;;;;;9.65;8.07;;;;;;;4.57;51.32;101762.47;5021829;27;20021;-70
2022/03/02 08:09:27;;;;;;;11.45;8.30;;;;;;;4.78;50.98;101747.50;5007033;27;20094;-70
2022/03/02 08:11:53;;;;;;;10.35;8.10;;;;;;;4.96;49.02;101756.25;5038999;27;20867;-70
2022/03/02 08:14:18;;;;;;;9.95;8.27;;;;;;;5.01;48.51;101743.75;5042240;27;20017;-70
2022/03/02 08:16:47;;;;;;;11.20;8.40;;;;;;;5.18;47.91;101748.16;5032811;27;20136;-71
2022/03/02 08:19:13;;;;;;;8.65;7.75;;;;;;;5.25;48.27;101748.72;5013775;27;20418;-73
2022/03/02 08:21:41;;;;;;;10.13;8.35;;;;;;;5.33;47.68;101757.88;5038463;27;20580;-72
2022/03/02 08:24:08;;;;;;;10.32;7.80;;;;;;;5.43;45.14;101753.03;5035695;27;20472;-71
2022/03/02 08:26:34;;;;;;;8.20;7.40;;;;;;;5.48;46.86;101750.16;5041016;27;20810;-70
2022/03/02 08:29:07;;;;;;;8.90;7.93;;;;;;;5.59;46.48;101760.09;5024535;27;20049;-71
2022/03/02 08:31:35;;;;;;;8.25;6.93;;;;;;;5.67;45.86;101737.75;4984697;28;20116;-71
2022/03/02 08:34:00;;;;;;;8.82;7.93;;;;;;;5.82;44.17;101746.63;5020202;28;20211;-71
2022/03/02 08:36:26;;;;;;;10.68;7.80;;;;;;;6.06;44.57;101748.88;5005671;28;20826;-71
2022/03/02 08:38:51;;;;;;;8.48;7.55;;;;;;;6.31;43.91;101744.94;5018276;28;20029;-72
2022/03/02 08:41:18;;;;;;;8.93;7.65;;;;;;;6.54;43.96;101743.66;5025581;28;21106;-72
2022/03/02 08:43:44;;;;;;;9.10;7.95;;;;;;;6.73;42.99;101743.47;5050086;27;20782;-71
2022/03/02 08:46:09;;;;;;;8.38;7.40;;;;;;;6.89;42.49;101735.53;5020839;27;20025;-71
2022/03/02 08:48:35;;;;;;;9.05;7.40;;;;;;;7.04;40.46;101737.28;5020345;27;20009;-71
2022/03/02 08:51:00;;;;;;;10.18;7.25;;;;;;;7.15;40.34;101727.91;5016201;27;20110;-72
2022/03/02 08:53:26;;;;;;;8.02;7.07;;;;;;;7.38;40.65;101729.19;5038400;27;20017;-72
2022/03/02 08:55:51;;;;;;;8.27;7.28;;;;;;;7.74;41.11;101730.53;5023173;27;20800;-72
2022/03/02 08:58:17;;;;;;;7.93;7.13;;;;;;;8.00;38.78;101723.66;5040214;27;20083;-71
2022/03/02 09:00:42;;;;;;;7.43;6.75;;;;;;;8.19;37.61;101719.84;5038897;27;20479;-71
2022/03/02 09:03:07;;;;;;;7.70;7.00;;;;;;;8.52;36.74;101706.34;5031403;27;20021;-72
2022/03/02 09:05:33;;;;;;;7.28;6.57;;;;;;;8.82;36.60;101715.81;5037934;27;20883;-72
2022/03/02 09:07:59;;;;;;;7.85;6.90;;;;;;;8.87;35.53;101711.09;5020125;27;20025;-71
2022/03/02 09:10:24;;;;;;;7.47;6.35;;;;;;;9.24;35.38;101705.13;5038400;27;20005;-70
2022/03/02 09:12:50;;;;;;;7.45;6.75;;;;;;;9.34;35.77;101698.28;5021900;27;21084;-73
2022/03/02 09:15:15;;;;;;;6.85;6.20;;;;;;;9.62;35.23;101704.28;5019308;27;20160;-73
2022/03/02 09:17:41;;;;;;;7.93;6.75;;;;;;;9.90;33.54;101710.25;5005595;27;20388;-70
2022/03/02 09:20:06;;;;;;;7.72;6.22;;;;;;;10.36;32.72;101696.41;5034466;27;20029;-71
2022/03/02 09:22:32;;;;;;;7.10;6.15;;;;;;;10.98;31.50;101698.03;5020367;27;20021;-72
2022/03/02 09:24:58;;;;;;;9.70;6.72;;;;;;;11.29;31.67;101690.38;5026071;27;20171;-71
2022/03/02 09:27:27;;;;;;;10.05;7.53;;;;;;;11.52;31.34;101695.72;5015472;27;20036;-72
2022/03/02 09:29:53;;;;;;;10.57;7.20;;;;;;;11.95;31.84;101695.00;5009968;27;20729;-71
2022/03/02 09:32:19;;;;;;;8.00;6.82;;;;;;;12.19;29.37;101688.69;5018539;27;20032;-72
2022/03/02 09:34:45;;;;;;;6.85;6.20;;;;;;;12.46;28.18;101693.56;5035771;27;20033;-73
2022/03/02 09:37:16;;;;;;;7.15;6.45;;;;;;;12.34;27.63;101686.63;5038464;27;20114;-72
2022/03/02 09:39:42;;;;;;;7.20;6.50;;;;;;;13.23;27.13;101683.66;5020394;27;20052;-72
2022/03/02 09:42:15;;;;;;;6.82;6.22;;;;;;;12.97;27.58;101678.75;5039974;27;20009;-73
2022/03/02 09:44:41;;;;;;;10.38;6.32;;;;;;;13.00;26.33;101673.16;5040697;27;20228;-71
2022/03/02 09:47:20;;;;;;;6.78;6.18;;;;;;;13.14;25.40;101677.31;5036953;27;20009;-71
2022/03/02 09:49:52;;;;;;;6.85;6.10;;;;;;;13.86;24.80;101670.25;5009219;27;20272;-72
2022/03/02 09:52:20;;;;;;;6.30;5.60;;;;;;;14.22;24.19;101667.94;5023385;27;20016;-72
2022/03/02 09:54:51;;;;;;;6.32;5.75;;;;;;;14.13;24.07;101675.91;5038430;27;20021;-72
2022/03/02 09:57:17;;;;;;;6.57;5.97;;;;;;;14.41;23.65;101675.09;5037749;27;20079;-72
2022/03/02 09:59:42;;;;;;;7.63;6.10;;;;;;;14.48;24.03;101663.88;5039173;27;20029;-72
2022/03/02 10:02:08;;;;;;;7.30;6.60;;;;;;;14.52;25.42;101667.94;5008847;27;20021;-73
2022/03/02 10:04:37;;;;;;;6.90;6.28;;;;;;;14.63;24.60;101667.84;5021342;27;20390;-73
2022/03/02 10:09:52;;;;;;;6.97;6.38;;;;;;;15.00;24.62;101664.44;5041372;27;20094;-72
2022/03/02 10:12:20;;;;;;;6.57;5.97;;;;;;;15.13;25.15;101665.97;5040580;27;20008;-72
2022/03/02 10:14:47;;;;;;;6.20;5.70;;;;;;;15.51;24.68;101677.47;5042647;27;20038;-72
2022/03/02 10:17:13;;;;;;;6.10;5.68;;;;;;;15.07;24.39;101680.69;5038675;27;20048;-71
2022/03/02 10:19:53;;;;;;;6.90;6.30;;;;;;;15.25;23.47;101673.63;5029519;27;20081;-72
2022/03/02 10:22:38;;;;;;;6.80;5.60;;;;;;;15.89;23.65;101683.66;5020546;27;20698;-72
2022/03/02 10:25:14;;;;;;;6.40;5.90;;;;;;;15.86;23.39;101675.97;5010325;27;20078;-72
2022/03/02 10:27:49;;;;;;;6.50;5.90;;;;;;;16.98;23.14;101677.41;5028923;27;20033;-71
2022/03/02 10:30:16;;;;;;;6.20;5.60;;;;;;;17.31;21.68;101681.09;5017571;27;20346;-72
2022/03/02 10:32:42;;;;;;;6.47;5.88;;;;;;;17.79;21.55;101681.50;5001275;27;20017;-71
2022/03/02 10:35:13;;;;;;;6.70;6.20;;;;;;;17.97;20.67;101672.59;5000918;27;20078;-71
2022/03/02 10:37:39;;;;;;;6.60;6.00;;;;;;;17.73;21.73;101665.28;5037234;27;20157;-71
2022/03/02 10:40:15;;;;;;;6.28;5.78;;;;;;;18.11;21.37;101666.59;5002058;27;20116;-71
2022/03/02 10:43:01;;;;;;;6.65;5.95;;;;;;;18.29;19.62;101668.28;5039442;27;20020;-71
2022/03/02 10:45:33;;;;;;;6.40;5.80;;;;;;;19.25;19.46;101671.28;5002569;27;20009;-71
2022/03/02 10:48:16;;;;;;;6.53;6.03;;;;;;;19.60;19.23;101675.41;5004040;27;20146;-72
2022/03/02 10:50:42;;;;;;;6.10;5.60;;;;;;;19.93;20.19;101671.78;5037751;27;20028;-72
2022/03/02 10:53:15;;;;;;;6.30;5.80;;;;;;;19.77;20.18;101665.44;5034931;28;20045;-72
2022/03/02 10:55:45;;;;;;;6.35;5.82;;;;;;;20.48;19.64;101665.34;4986602;28;20916;-72
2022/03/02 10:58:13;;;;;;;6.32;5.72;;;;;;;20.60;20.10;101657.69;5006366;28;20032;-72
2022/03/02 11:00:38;;;;;;;6.60;5.97;;;;;;;21.24;18.61;101654.59;5036549;28;20045;-71
2022/03/02 11:03:04;;;;;;;6.07;5.60;;;;;;;21.70;17.23;101653.56;5003401;28;20910;-71
2022/03/02 11:05:30;;;;;;;6.53;5.93;;;;;;;20.33;18.15;101661.75;5010991;27;20021;-72
2022/03/02 11:07:56;;;;;;;5.88;5.38;;;;;;;19.27;18.29;101653.19;5007378;27;20368;-72
2022/03/02 11:10:30;;;;;;;6.13;5.63;;;;;;;19.33;19.44;101657.88;5040669;27;20275;-72
2022/03/02 11:12:56;;;;;;;6.07;5.50;;;;;;;20.29;18.04;101649.69;5038170;27;20035;-72
2022/03/02 11:15:21;;;;;;;6.60;5.20;;;;;;;19.58;18.80;101652.41;5043378;27;20112;-72
2022/03/02 11:18:05;;;;;;;5.45;5.05;;;;;;;19.28;18.81;101649.50;5020805;27;20024;-71
2022/03/02 11:20:31;;;;;;;;;;;;;;;19.62;18.24;101640.31;5008908;27;20013;-71
2022/03/02 11:23:00;;;;;;;6.13;5.23;;;;;;;20.45;17.79;101636.13;5036456;27;19920;-71
2022/03/02 11:25:49;;;;;;;5.18;4.85;;;;;;;19.92;18.65;101635.16;5025760;27;20281;-71
2022/03/02 11:28:22;;;;;;;5.78;5.38;;;;;;;20.84;17.96;101629.78;5023164;27;20033;-71
2022/03/02 11:30:52;;;;;;;6.25;5.75;;;;;;;20.79;17.78;101626.78;5035109;27;20636;-73